Highland, West Virginia
Current Conditions -  °F | °C
As of 6:17 AM on Wednesday 22 Oct 2014 (Local Time) from KPKB Reporting Station
Overcast Overcast  
Wind Chill: 47°   Ceiling: 2400
Heat Index: 47°   Visibility: 10mi
Dew Point: 44°   Wind: 3mph
Humidity: 90%   Direction: 310°NW
Pressure: 30.14"   Gusts: NA
Location:  39.2993°N, 81.0581°W
Report Text: KPKB 221017Z AUTO 31003KT 10SM SCT012 OVC024 08/07 A3014 RMK AO2 T00830067
Loading
Personal Weather Stations






























Interactive Weather Map
Tropical Storm Tracking
New forecast layout! Learn more

10-Day Weather Forecast

Advertisements
Track Severe Weather on mobile